sensor_id;sensor_type;location;lat;lon;timestamp;P1;durP1;ratioP1;P2;durP2;ratioP2
50205;SDS011;36098;48.390;10.856;2023-12-20T00:01:46;1.90;;;1.30;;
50205;SDS011;36098;48.390;10.856;2023-12-20T00:04:11;2.65;;;1.30;;
50205;SDS011;36098;48.390;10.856;2023-12-20T00:06:37;2.45;;;1.27;;
50205;SDS011;36098;48.390;10.856;2023-12-20T00:09:02;3.05;;;1.30;;
50205;SDS011;36098;48.390;10.856;2023-12-20T00:11:27;2.22;;;1.40;;
50205;SDS011;36098;48.390;10.856;2023-12-20T00:13:52;2.65;;;1.25;;
50205;SDS011;36098;48.390;10.856;2023-12-20T00:16:18;1.75;;;1.30;;
50205;SDS011;36098;48.390;10.856;2023-12-20T00:18:43;5.53;;;1.20;;
50205;SDS011;36098;48.390;10.856;2023-12-20T00:21:08;1.80;;;1.10;;
50205;SDS011;36098;48.390;10.856;2023-12-20T00:23:34;1.98;;;1.27;;
50205;SDS011;36098;48.390;10.856;2023-12-20T00:25:59;1.40;;;1.05;;
50205;SDS011;36098;48.390;10.856;2023-12-20T00:28:24;2.75;;;1.10;;
50205;SDS011;36098;48.390;10.856;2023-12-20T00:30:49;1.90;;;1.20;;
50205;SDS011;36098;48.390;10.856;2023-12-20T00:33:15;2.20;;;1.35;;
50205;SDS011;36098;48.390;10.856;2023-12-20T00:35:40;2.92;;;1.13;;
50205;SDS011;36098;48.390;10.856;2023-12-20T00:38:06;2.10;;;1.15;;
50205;SDS011;36098;48.390;10.856;2023-12-20T00:40:33;1.83;;;1.20;;
50205;SDS011;36098;48.390;10.856;2023-12-20T00:42:58;1.38;;;1.05;;
50205;SDS011;36098;48.390;10.856;2023-12-20T00:45:24;2.13;;;1.15;;
50205;SDS011;36098;48.390;10.856;2023-12-20T00:47:49;2.30;;;1.08;;
50205;SDS011;36098;48.390;10.856;2023-12-20T00:50:14;2.05;;;1.27;;
50205;SDS011;36098;48.390;10.856;2023-12-20T00:52:39;1.77;;;1.17;;
50205;SDS011;36098;48.390;10.856;2023-12-20T00:55:05;1.75;;;1.00;;
50205;SDS011;36098;48.390;10.856;2023-12-20T00:57:30;2.33;;;1.20;;
50205;SDS011;36098;48.390;10.856;2023-12-20T00:59:56;2.20;;;1.30;;
50205;SDS011;36098;48.390;10.856;2023-12-20T01:02:21;2.00;;;1.30;;
50205;SDS011;36098;48.390;10.856;2023-12-20T01:04:46;1.20;;;0.90;;
50205;SDS011;36098;48.390;10.856;2023-12-20T01:07:12;2.33;;;1.20;;
50205;SDS011;36098;48.390;10.856;2023-12-20T01:09:37;1.65;;;1.10;;
50205;SDS011;36098;48.390;10.856;2023-12-20T01:12:02;1.92;;;1.10;;
50205;SDS011;36098;48.390;10.856;2023-12-20T01:14:28;1.88;;;1.27;;
50205;SDS011;36098;48.390;10.856;2023-12-20T01:16:53;1.27;;;1.00;;
50205;SDS011;36098;48.390;10.856;2023-12-20T01:19:18;2.28;;;1.20;;
50205;SDS011;36098;48.390;10.856;2023-12-20T01:21:43;1.83;;;1.17;;
50205;SDS011;36098;48.390;10.856;2023-12-20T01:24:09;1.73;;;0.95;;
50205;SDS011;36098;48.390;10.856;2023-12-20T01:26:34;2.10;;;1.13;;
50205;SDS011;36098;48.390;10.856;2023-12-20T01:28:59;1.30;;;1.00;;
50205;SDS011;36098;48.390;10.856;2023-12-20T01:31:26;1.67;;;1.13;;
50205;SDS011;36098;48.390;10.856;2023-12-20T01:33:52;1.20;;;0.90;;
50205;SDS011;36098;48.390;10.856;2023-12-20T01:36:17;1.48;;;0.95;;
50205;SDS011;36098;48.390;10.856;2023-12-20T01:38:43;1.60;;;1.10;;
50205;SDS011;36098;48.390;10.856;2023-12-20T01:41:08;1.77;;;1.25;;
50205;SDS011;36098;48.390;10.856;2023-12-20T01:43:33;2.35;;;1.17;;
50205;SDS011;36098;48.390;10.856;2023-12-20T01:45:58;1.48;;;1.13;;
50205;SDS011;36098;48.390;10.856;2023-12-20T01:48:24;1.63;;;0.90;;
50205;SDS011;36098;48.390;10.856;2023-12-20T01:50:51;1.30;;;0.90;;
50205;SDS011;36098;48.390;10.856;2023-12-20T01:53:17;1.50;;;1.08;;
50205;SDS011;36098;48.390;10.856;2023-12-20T01:55:44;2.28;;;1.02;;
50205;SDS011;36098;48.390;10.856;2023-12-20T01:58:10;1.60;;;1.00;;
50205;SDS011;36098;48.390;10.856;2023-12-20T02:00:37;2.13;;;1.10;;
50205;SDS011;36098;48.390;10.856;2023-12-20T02:03:03;1.08;;;0.80;;
50205;SDS011;36098;48.390;10.856;2023-12-20T02:05:32;1.27;;;0.90;;
50205;SDS011;36098;48.390;10.856;2023-12-20T02:07:58;1.40;;;0.93;;
50205;SDS011;36098;48.390;10.856;2023-12-20T02:10:24;1.90;;;1.08;;
50205;SDS011;36098;48.390;10.856;2023-12-20T02:12:50;2.15;;;1.10;;
50205;SDS011;36098;48.390;10.856;2023-12-20T02:15:15;1.08;;;0.90;;
50205;SDS011;36098;48.390;10.856;2023-12-20T02:17:41;1.23;;;0.80;;
50205;SDS011;36098;48.390;10.856;2023-12-20T02:20:06;1.80;;;1.00;;
50205;SDS011;36098;48.390;10.856;2023-12-20T02:22:32;1.05;;;0.90;;
50205;SDS011;36098;48.390;10.856;2023-12-20T02:24:57;1.55;;;0.95;;
50205;SDS011;36098;48.390;10.856;2023-12-20T02:27:22;1.27;;;1.00;;
50205;SDS011;36098;48.390;10.856;2023-12-20T02:29:48;2.20;;;0.90;;
50205;SDS011;36098;48.390;10.856;2023-12-20T02:32:14;1.92;;;1.17;;
50205;SDS011;36098;48.390;10.856;2023-12-20T02:34:41;1.45;;;0.90;;
50205;SDS011;36098;48.390;10.856;2023-12-20T02:37:06;1.40;;;1.02;;
50205;SDS011;36098;48.390;10.856;2023-12-20T02:39:31;1.20;;;0.82;;
50205;SDS011;36098;48.390;10.856;2023-12-20T02:41:56;1.23;;;0.73;;
50205;SDS011;36098;48.390;10.856;2023-12-20T02:44:22;1.13;;;0.90;;
50205;SDS011;36098;48.390;10.856;2023-12-20T02:46:47;1.98;;;1.05;;
50205;SDS011;36098;48.390;10.856;2023-12-20T02:49:12;1.58;;;0.90;;
50205;SDS011;36098;48.390;10.856;2023-12-20T02:51:37;1.33;;;0.90;;
50205;SDS011;36098;48.390;10.856;2023-12-20T02:54:03;1.23;;;0.80;;
50205;SDS011;36098;48.390;10.856;2023-12-20T02:56:29;1.25;;;0.85;;
50205;SDS011;36098;48.390;10.856;2023-12-20T02:58:54;1.20;;;0.90;;
50205;SDS011;36098;48.390;10.856;2023-12-20T03:01:19;1.00;;;0.75;;
50205;SDS011;36098;48.390;10.856;2023-12-20T03:03:45;1.42;;;0.80;;
50205;SDS011;36098;48.390;10.856;2023-12-20T03:06:10;3.15;;;1.00;;
50205;SDS011;36098;48.390;10.856;2023-12-20T03:08:35;1.42;;;1.02;;
50205;SDS011;36098;48.390;10.856;2023-12-20T03:11:00;1.00;;;0.90;;
50205;SDS011;36098;48.390;10.856;2023-12-20T03:13:26;1.23;;;0.80;;
50205;SDS011;36098;48.390;10.856;2023-12-20T03:15:51;1.50;;;0.93;;
50205;SDS011;36098;48.390;10.856;2023-12-20T03:18:16;1.45;;;1.00;;
50205;SDS011;36098;48.390;10.856;2023-12-20T03:20:43;1.45;;;0.98;;
50205;SDS011;36098;48.390;10.856;2023-12-20T03:23:08;1.55;;;1.00;;
50205;SDS011;36098;48.390;10.856;2023-12-20T03:25:33;1.63;;;0.95;;
50205;SDS011;36098;48.390;10.856;2023-12-20T03:27:59;1.15;;;0.90;;
50205;SDS011;36098;48.390;10.856;2023-12-20T03:30:24;1.67;;;0.90;;
50205;SDS011;36098;48.390;10.856;2023-12-20T03:32:49;1.42;;;0.93;;
50205;SDS011;36098;48.390;10.856;2023-12-20T03:35:14;1.85;;;0.80;;
50205;SDS011;36098;48.390;10.856;2023-12-20T03:37:40;1.13;;;0.77;;
50205;SDS011;36098;48.390;10.856;2023-12-20T03:40:05;0.93;;;0.73;;
50205;SDS011;36098;48.390;10.856;2023-12-20T03:42:31;1.40;;;0.90;;
50205;SDS011;36098;48.390;10.856;2023-12-20T03:44:56;1.38;;;0.90;;
50205;SDS011;36098;48.390;10.856;2023-12-20T03:47:21;1.33;;;0.90;;
50205;SDS011;36098;48.390;10.856;2023-12-20T03:49:47;2.25;;;0.80;;
50205;SDS011;36098;48.390;10.856;2023-12-20T03:52:12;1.15;;;0.80;;
50205;SDS011;36098;48.390;10.856;2023-12-20T03:54:37;0.95;;;0.73;;
50205;SDS011;36098;48.390;10.856;2023-12-20T03:57:03;1.30;;;0.85;;
50205;SDS011;36098;48.390;10.856;2023-12-20T03:59:28;1.67;;;0.95;;
50205;SDS011;36098;48.390;10.856;2023-12-20T04:01:53;1.40;;;0.80;;
50205;SDS011;36098;48.390;10.856;2023-12-20T04:04:19;1.05;;;0.70;;
50205;SDS011;36098;48.390;10.856;2023-12-20T04:06:44;1.20;;;0.80;;
50205;SDS011;36098;48.390;10.856;2023-12-20T04:09:09;1.60;;;1.00;;
50205;SDS011;36098;48.390;10.856;2023-12-20T04:11:35;1.40;;;0.70;;
50205;SDS011;36098;48.390;10.856;2023-12-20T04:14:01;1.30;;;0.77;;
50205;SDS011;36098;48.390;10.856;2023-12-20T04:16:26;1.13;;;0.70;;
50205;SDS011;36098;48.390;10.856;2023-12-20T04:18:52;0.80;;;0.70;;
50205;SDS011;36098;48.390;10.856;2023-12-20T04:21:17;1.23;;;0.70;;
50205;SDS011;36098;48.390;10.856;2023-12-20T04:23:43;1.52;;;1.00;;
50205;SDS011;36098;48.390;10.856;2023-12-20T04:26:08;1.05;;;0.80;;
50205;SDS011;36098;48.390;10.856;2023-12-20T04:28:33;1.30;;;0.95;;
50205;SDS011;36098;48.390;10.856;2023-12-20T04:30:58;1.20;;;0.93;;
50205;SDS011;36098;48.390;10.856;2023-12-20T04:33:24;0.80;;;0.60;;
50205;SDS011;36098;48.390;10.856;2023-12-20T04:35:49;0.60;;;0.52;;
50205;SDS011;36098;48.390;10.856;2023-12-20T04:38:14;1.00;;;0.80;;
50205;SDS011;36098;48.390;10.856;2023-12-20T04:40:40;0.70;;;0.68;;
50205;SDS011;36098;48.390;10.856;2023-12-20T04:43:06;1.00;;;0.70;;
50205;SDS011;36098;48.390;10.856;2023-12-20T04:45:32;2.03;;;0.73;;
50205;SDS011;36098;48.390;10.856;2023-12-20T04:47:57;1.80;;;0.70;;
50205;SDS011;36098;48.390;10.856;2023-12-20T04:50:22;1.08;;;0.80;;
50205;SDS011;36098;48.390;10.856;2023-12-20T04:52:48;1.23;;;0.80;;
50205;SDS011;36098;48.390;10.856;2023-12-20T04:55:13;0.70;;;0.63;;
50205;SDS011;36098;48.390;10.856;2023-12-20T04:57:39;0.77;;;0.63;;
50205;SDS011;36098;48.390;10.856;2023-12-20T05:00:04;1.00;;;0.80;;
50205;SDS011;36098;48.390;10.856;2023-12-20T05:02:30;1.10;;;0.75;;
50205;SDS011;36098;48.390;10.856;2023-12-20T05:04:55;0.60;;;0.47;;
50205;SDS011;36098;48.390;10.856;2023-12-20T05:07:21;0.90;;;0.60;;
50205;SDS011;36098;48.390;10.856;2023-12-20T05:09:46;0.85;;;0.63;;
50205;SDS011;36098;48.390;10.856;2023-12-20T05:12:12;0.77;;;0.60;;
50205;SDS011;36098;48.390;10.856;2023-12-20T05:14:37;1.55;;;0.82;;
50205;SDS011;36098;48.390;10.856;2023-12-20T05:17:02;0.90;;;0.70;;
50205;SDS011;36098;48.390;10.856;2023-12-20T05:19:28;1.13;;;0.60;;
50205;SDS011;36098;48.390;10.856;2023-12-20T05:21:53;1.05;;;0.70;;
50205;SDS011;36098;48.390;10.856;2023-12-20T05:24:18;0.85;;;0.60;;
50205;SDS011;36098;48.390;10.856;2023-12-20T05:26:44;0.63;;;0.60;;
50205;SDS011;36098;48.390;10.856;2023-12-20T05:29:09;1.02;;;0.70;;
50205;SDS011;36098;48.390;10.856;2023-12-20T05:31:34;0.88;;;0.60;;
50205;SDS011;36098;48.390;10.856;2023-12-20T05:34:00;1.02;;;0.60;;
50205;SDS011;36098;48.390;10.856;2023-12-20T05:36:25;1.10;;;0.70;;
50205;SDS011;36098;48.390;10.856;2023-12-20T05:38:51;0.90;;;0.70;;
50205;SDS011;36098;48.390;10.856;2023-12-20T05:41:16;0.80;;;0.70;;
50205;SDS011;36098;48.390;10.856;2023-12-20T05:43:41;1.00;;;0.73;;
50205;SDS011;36098;48.390;10.856;2023-12-20T05:46:06;1.02;;;0.60;;
50205;SDS011;36098;48.390;10.856;2023-12-20T05:48:32;1.17;;;0.80;;
50205;SDS011;36098;48.390;10.856;2023-12-20T05:50:57;2.28;;;0.85;;
50205;SDS011;36098;48.390;10.856;2023-12-20T05:53:22;0.95;;;0.63;;
50205;SDS011;36098;48.390;10.856;2023-12-20T05:55:48;2.20;;;0.70;;
50205;SDS011;36098;48.390;10.856;2023-12-20T05:58:13;2.67;;;0.90;;
50205;SDS011;36098;48.390;10.856;2023-12-20T06:00:38;3.42;;;1.00;;
50205;SDS011;36098;48.390;10.856;2023-12-20T06:03:04;1.65;;;0.80;;
50205;SDS011;36098;48.390;10.856;2023-12-20T06:05:30;1.17;;;0.80;;
50205;SDS011;36098;48.390;10.856;2023-12-20T06:07:55;3.45;;;0.70;;
50205;SDS011;36098;48.390;10.856;2023-12-20T06:10:26;2.53;;;0.80;;
50205;SDS011;36098;48.390;10.856;2023-12-20T06:12:51;2.33;;;0.82;;
50205;SDS011;36098;48.390;10.856;2023-12-20T06:15:16;3.17;;;0.82;;
50205;SDS011;36098;48.390;10.856;2023-12-20T06:17:42;2.55;;;0.90;;
50205;SDS011;36098;48.390;10.856;2023-12-20T06:20:07;2.70;;;0.82;;
50205;SDS011;36098;48.390;10.856;2023-12-20T06:22:34;1.00;;;0.68;;
50205;SDS011;36098;48.390;10.856;2023-12-20T06:24:59;2.65;;;0.80;;
50205;SDS011;36098;48.390;10.856;2023-12-20T06:27:25;2.92;;;0.85;;
50205;SDS011;36098;48.390;10.856;2023-12-20T06:29:50;3.75;;;0.88;;
50205;SDS011;36098;48.390;10.856;2023-12-20T06:32:15;1.73;;;0.90;;
50205;SDS011;36098;48.390;10.856;2023-12-20T06:34:40;2.50;;;0.80;;
50205;SDS011;36098;48.390;10.856;2023-12-20T06:37:06;5.70;;;0.98;;
50205;SDS011;36098;48.390;10.856;2023-12-20T06:39:31;2.25;;;0.95;;
50205;SDS011;36098;48.390;10.856;2023-12-20T06:41:58;3.22;;;0.70;;
50205;SDS011;36098;48.390;10.856;2023-12-20T06:44:24;4.00;;;0.93;;
50205;SDS011;36098;48.390;10.856;2023-12-20T06:46:49;1.92;;;0.77;;
50205;SDS011;36098;48.390;10.856;2023-12-20T06:49:14;3.63;;;0.80;;
50205;SDS011;36098;48.390;10.856;2023-12-20T06:51:40;2.50;;;0.80;;
50205;SDS011;36098;48.390;10.856;2023-12-20T06:54:05;2.25;;;0.90;;
50205;SDS011;36098;48.390;10.856;2023-12-20T06:56:30;2.67;;;0.85;;
50205;SDS011;36098;48.390;10.856;2023-12-20T06:58:55;1.00;;;0.75;;
50205;SDS011;36098;48.390;10.856;2023-12-20T07:01:21;4.00;;;0.93;;
50205;SDS011;36098;48.390;10.856;2023-12-20T07:03:47;1.30;;;0.75;;
50205;SDS011;36098;48.390;10.856;2023-12-20T07:06:12;2.00;;;0.75;;
50205;SDS011;36098;48.390;10.856;2023-12-20T07:08:40;2.95;;;0.80;;
50205;SDS011;36098;48.390;10.856;2023-12-20T07:11:05;3.80;;;0.88;;
50205;SDS011;36098;48.390;10.856;2023-12-20T07:13:31;2.80;;;1.00;;
50205;SDS011;36098;48.390;10.856;2023-12-20T07:15:56;3.10;;;0.85;;
50205;SDS011;36098;48.390;10.856;2023-12-20T07:18:21;1.77;;;0.60;;
50205;SDS011;36098;48.390;10.856;2023-12-20T07:20:46;2.88;;;0.73;;
50205;SDS011;36098;48.390;10.856;2023-12-20T07:23:12;4.82;;;0.82;;
50205;SDS011;36098;48.390;10.856;2023-12-20T07:25:37;1.73;;;0.60;;
50205;SDS011;36098;48.390;10.856;2023-12-20T07:28:02;1.33;;;0.80;;
50205;SDS011;36098;48.390;10.856;2023-12-20T07:30:28;2.10;;;0.75;;
50205;SDS011;36098;48.390;10.856;2023-12-20T07:32:53;3.22;;;0.90;;
50205;SDS011;36098;48.390;10.856;2023-12-20T07:35:18;0.98;;;0.75;;
50205;SDS011;36098;48.390;10.856;2023-12-20T07:37:44;1.15;;;0.70;;
50205;SDS011;36098;48.390;10.856;2023-12-20T07:40:09;3.05;;;0.88;;
50205;SDS011;36098;48.390;10.856;2023-12-20T07:42:35;1.80;;;0.60;;
50205;SDS011;36098;48.390;10.856;2023-12-20T07:45:00;1.17;;;0.68;;
50205;SDS011;36098;48.390;10.856;2023-12-20T07:47:25;1.33;;;0.70;;
50205;SDS011;36098;48.390;10.856;2023-12-20T07:49:51;2.92;;;0.95;;
50205;SDS011;36098;48.390;10.856;2023-12-20T07:52:17;1.95;;;0.63;;
50205;SDS011;36098;48.390;10.856;2023-12-20T07:54:43;1.77;;;0.70;;
50205;SDS011;36098;48.390;10.856;2023-12-20T07:57:09;1.45;;;0.63;;
50205;SDS011;36098;48.390;10.856;2023-12-20T07:59:35;1.80;;;0.77;;
50205;SDS011;36098;48.390;10.856;2023-12-20T08:02:00;1.02;;;0.57;;
50205;SDS011;36098;48.390;10.856;2023-12-20T08:04:26;1.45;;;0.63;;
50205;SDS011;36098;48.390;10.856;2023-12-20T08:06:51;1.63;;;0.82;;
50205;SDS011;36098;48.390;10.856;2023-12-20T08:09:16;1.35;;;0.63;;
50205;SDS011;36098;48.390;10.856;2023-12-20T08:11:45;1.65;;;0.70;;
50205;SDS011;36098;48.390;10.856;2023-12-20T08:14:11;1.95;;;0.68;;
50205;SDS011;36098;48.390;10.856;2023-12-20T08:16:36;3.08;;;0.60;;
50205;SDS011;36098;48.390;10.856;2023-12-20T08:19:01;1.55;;;0.60;;
50205;SDS011;36098;48.390;10.856;2023-12-20T08:21:27;2.00;;;0.73;;
50205;SDS011;36098;48.390;10.856;2023-12-20T08:23:52;1.17;;;0.68;;
50205;SDS011;36098;48.390;10.856;2023-12-20T08:26:21;1.20;;;0.73;;
50205;SDS011;36098;48.390;10.856;2023-12-20T08:28:47;1.70;;;0.70;;
50205;SDS011;36098;48.390;10.856;2023-12-20T08:31:14;1.25;;;0.70;;
50205;SDS011;36098;48.390;10.856;2023-12-20T08:33:41;1.20;;;0.57;;
50205;SDS011;36098;48.390;10.856;2023-12-20T08:36:06;2.30;;;0.65;;
50205;SDS011;36098;48.390;10.856;2023-12-20T08:38:31;0.85;;;0.50;;
50205;SDS011;36098;48.390;10.856;2023-12-20T08:40:56;0.80;;;0.70;;
50205;SDS011;36098;48.390;10.856;2023-12-20T08:43:22;2.85;;;0.80;;
50205;SDS011;36098;48.390;10.856;2023-12-20T08:45:47;1.63;;;0.70;;
50205;SDS011;36098;48.390;10.856;2023-12-20T08:48:12;1.00;;;0.70;;
50205;SDS011;36098;48.390;10.856;2023-12-20T08:50:37;1.83;;;0.77;;
50205;SDS011;36098;48.390;10.856;2023-12-20T08:53:03;2.40;;;0.88;;
50205;SDS011;36098;48.390;10.856;2023-12-20T08:55:29;0.90;;;0.63;;
50205;SDS011;36098;48.390;10.856;2023-12-20T08:57:55;1.75;;;0.70;;
50205;SDS011;36098;48.390;10.856;2023-12-20T09:00:21;1.02;;;0.60;;
50205;SDS011;36098;48.390;10.856;2023-12-20T09:02:49;1.60;;;0.57;;
50205;SDS011;36098;48.390;10.856;2023-12-20T09:05:14;1.55;;;0.80;;
50205;SDS011;36098;48.390;10.856;2023-12-20T09:07:39;1.40;;;0.73;;
50205;SDS011;36098;48.390;10.856;2023-12-20T09:10:05;0.82;;;0.60;;
50205;SDS011;36098;48.390;10.856;2023-12-20T09:12:30;1.73;;;0.52;;
50205;SDS011;36098;48.390;10.856;2023-12-20T09:14:56;1.10;;;0.60;;
50205;SDS011;36098;48.390;10.856;2023-12-20T09:17:21;1.95;;;0.70;;
50205;SDS011;36098;48.390;10.856;2023-12-20T09:19:48;1.13;;;0.60;;
50205;SDS011;36098;48.390;10.856;2023-12-20T09:22:13;5.70;;;0.70;;
50205;SDS011;36098;48.390;10.856;2023-12-20T09:24:38;1.65;;;0.57;;
50205;SDS011;36098;48.390;10.856;2023-12-20T09:27:05;1.15;;;0.57;;
50205;SDS011;36098;48.390;10.856;2023-12-20T09:29:30;2.72;;;0.45;;
50205;SDS011;36098;48.390;10.856;2023-12-20T09:31:56;1.10;;;0.60;;
50205;SDS011;36098;48.390;10.856;2023-12-20T09:34:22;1.17;;;0.60;;
50205;SDS011;36098;48.390;10.856;2023-12-20T09:36:48;2.35;;;0.93;;
50205;SDS011;36098;48.390;10.856;2023-12-20T09:39:13;0.98;;;0.60;;
50205;SDS011;36098;48.390;10.856;2023-12-20T09:41:43;1.70;;;0.63;;
50205;SDS011;36098;48.390;10.856;2023-12-20T09:44:11;2.85;;;0.57;;
50205;SDS011;36098;48.390;10.856;2023-12-20T09:46:39;1.55;;;0.63;;
50205;SDS011;36098;48.390;10.856;2023-12-20T09:49:08;2.83;;;0.70;;
50205;SDS011;36098;48.390;10.856;2023-12-20T09:51:35;1.52;;;0.70;;
50205;SDS011;36098;48.390;10.856;2023-12-20T09:54:01;2.72;;;0.60;;
50205;SDS011;36098;48.390;10.856;2023-12-20T09:56:28;0.88;;;0.52;;
50205;SDS011;36098;48.390;10.856;2023-12-20T09:58:54;1.02;;;0.60;;
50205;SDS011;36098;48.390;10.856;2023-12-20T10:01:19;1.85;;;0.70;;
50205;SDS011;36098;48.390;10.856;2023-12-20T10:03:46;1.65;;;0.85;;
50205;SDS011;36098;48.390;10.856;2023-12-20T10:06:11;1.42;;;0.68;;
50205;SDS011;36098;48.390;10.856;2023-12-20T10:08:37;1.33;;;0.50;;
50205;SDS011;36098;48.390;10.856;2023-12-20T10:11:03;2.33;;;0.77;;
50205;SDS011;36098;48.390;10.856;2023-12-20T10:13:29;2.25;;;0.60;;
50205;SDS011;36098;48.390;10.856;2023-12-20T10:15:54;2.03;;;0.82;;
50205;SDS011;36098;48.390;10.856;2023-12-20T10:18:20;4.90;;;0.80;;
50205;SDS011;36098;48.390;10.856;2023-12-20T10:20:46;0.80;;;0.50;;
50205;SDS011;36098;48.390;10.856;2023-12-20T10:23:12;1.92;;;0.50;;
50205;SDS011;36098;48.390;10.856;2023-12-20T10:25:38;2.95;;;0.60;;
50205;SDS011;36098;48.390;10.856;2023-12-20T10:28:08;0.60;;;0.40;;
50205;SDS011;36098;48.390;10.856;2023-12-20T10:30:34;1.42;;;0.60;;
50205;SDS011;36098;48.390;10.856;2023-12-20T10:32:59;1.42;;;0.65;;
50205;SDS011;36098;48.390;10.856;2023-12-20T10:35:24;1.85;;;0.50;;
50205;SDS011;36098;48.390;10.856;2023-12-20T10:37:50;1.05;;;0.52;;
50205;SDS011;36098;48.390;10.856;2023-12-20T10:40:20;2.97;;;0.80;;
50205;SDS011;36098;48.390;10.856;2023-12-20T10:42:46;2.55;;;0.75;;
50205;SDS011;36098;48.390;10.856;2023-12-20T10:45:12;2.50;;;0.70;;
50205;SDS011;36098;48.390;10.856;2023-12-20T10:47:37;1.60;;;0.70;;
50205;SDS011;36098;48.390;10.856;2023-12-20T10:50:05;0.70;;;0.50;;
50205;SDS011;36098;48.390;10.856;2023-12-20T10:52:31;3.08;;;0.50;;
50205;SDS011;36098;48.390;10.856;2023-12-20T10:54:57;1.77;;;0.70;;
50205;SDS011;36098;48.390;10.856;2023-12-20T10:57:23;1.27;;;0.60;;
50205;SDS011;36098;48.390;10.856;2023-12-20T10:59:52;0.90;;;0.60;;
50205;SDS011;36098;48.390;10.856;2023-12-20T11:02:19;3.67;;;0.60;;
50205;SDS011;36098;48.390;10.856;2023-12-20T11:04:53;1.45;;;0.85;;
50205;SDS011;36098;48.390;10.856;2023-12-20T11:07:33;1.92;;;0.75;;
50205;SDS011;36098;48.390;10.856;2023-12-20T11:10:10;3.42;;;1.00;;
50205;SDS011;36098;48.390;10.856;2023-12-20T11:12:44;2.75;;;0.63;;
50205;SDS011;36098;48.390;10.856;2023-12-20T11:15:34;0.90;;;0.60;;
50205;SDS011;36098;48.390;10.856;2023-12-20T11:18:00;2.60;;;0.70;;
50205;SDS011;36098;48.390;10.856;2023-12-20T11:20:35;2.67;;;0.70;;
50205;SDS011;36098;48.390;10.856;2023-12-20T11:23:02;0.90;;;0.73;;
50205;SDS011;36098;48.390;10.856;2023-12-20T11:25:27;1.67;;;0.90;;
50205;SDS011;36098;48.390;10.856;2023-12-20T11:28:10;0.80;;;0.70;;
50205;SDS011;36098;48.390;10.856;2023-12-20T11:33:08;1.08;;;0.70;;
50205;SDS011;36098;48.390;10.856;2023-12-20T11:35:33;4.35;;;0.70;;
50205;SDS011;36098;48.390;10.856;2023-12-20T11:38:00;3.38;;;0.80;;
50205;SDS011;36098;48.390;10.856;2023-12-20T11:40:25;1.70;;;0.80;;
50205;SDS011;36098;48.390;10.856;2023-12-20T11:42:51;3.13;;;0.85;;
50205;SDS011;36098;48.390;10.856;2023-12-20T11:45:21;0.93;;;0.60;;
50205;SDS011;36098;48.390;10.856;2023-12-20T11:47:49;1.30;;;0.70;;
50205;SDS011;36098;48.390;10.856;2023-12-20T11:50:17;4.53;;;1.05;;
50205;SDS011;36098;48.390;10.856;2023-12-20T11:52:42;2.35;;;0.88;;
50205;SDS011;36098;48.390;10.856;2023-12-20T11:55:08;1.33;;;0.77;;
50205;SDS011;36098;48.390;10.856;2023-12-20T11:57:33;1.83;;;0.70;;
50205;SDS011;36098;48.390;10.856;2023-12-20T11:59:59;1.98;;;0.85;;
50205;SDS011;36098;48.390;10.856;2023-12-20T12:02:24;2.35;;;0.82;;
50205;SDS011;36098;48.390;10.856;2023-12-20T12:04:50;2.22;;;1.10;;
50205;SDS011;36098;48.390;10.856;2023-12-20T12:07:18;4.57;;;1.00;;
50205;SDS011;36098;48.390;10.856;2023-12-20T12:09:44;1.80;;;0.90;;
50205;SDS011;36098;48.390;10.856;2023-12-20T12:12:11;2.67;;;0.90;;
50205;SDS011;36098;48.390;10.856;2023-12-20T12:14:37;2.10;;;1.00;;
50205;SDS011;36098;48.390;10.856;2023-12-20T12:17:03;1.00;;;0.75;;
50205;SDS011;36098;48.390;10.856;2023-12-20T12:19:29;1.63;;;0.90;;
50205;SDS011;36098;48.390;10.856;2023-12-20T12:22:06;3.10;;;1.02;;
50205;SDS011;36098;48.390;10.856;2023-12-20T12:24:52;2.15;;;1.00;;
50205;SDS011;36098;48.390;10.856;2023-12-20T12:27:17;2.30;;;1.20;;
50205;SDS011;36098;48.390;10.856;2023-12-20T12:29:59;5.07;;;1.00;;
50205;SDS011;36098;48.390;10.856;2023-12-20T12:32:26;2.00;;;1.00;;
50205;SDS011;36098;48.390;10.856;2023-12-20T12:34:52;2.00;;;0.80;;
50205;SDS011;36098;48.390;10.856;2023-12-20T12:37:17;3.58;;;0.98;;
50205;SDS011;36098;48.390;10.856;2023-12-20T12:39:42;3.63;;;1.00;;
50205;SDS011;36098;48.390;10.856;2023-12-20T12:42:08;3.05;;;0.85;;
50205;SDS011;36098;48.390;10.856;2023-12-20T12:44:33;9.27;;;5.68;;
50205;SDS011;36098;48.390;10.856;2023-12-20T12:46:58;25.60;;;13.80;;
50205;SDS011;36098;48.390;10.856;2023-12-20T12:49:23;26.42;;;18.95;;
50205;SDS011;36098;48.390;10.856;2023-12-20T12:51:49;25.63;;;19.55;;
50205;SDS011;36098;48.390;10.856;2023-12-20T12:54:14;29.88;;;20.17;;
50205;SDS011;36098;48.390;10.856;2023-12-20T12:56:42;28.85;;;18.50;;
50205;SDS011;36098;48.390;10.856;2023-12-20T12:59:08;25.30;;;17.02;;
50205;SDS011;36098;48.390;10.856;2023-12-20T13:01:33;22.33;;;15.45;;
50205;SDS011;36098;48.390;10.856;2023-12-20T13:03:58;21.25;;;14.95;;
50205;SDS011;36098;48.390;10.856;2023-12-20T13:06:25;17.10;;;12.88;;
50205;SDS011;36098;48.390;10.856;2023-12-20T13:08:50;17.52;;;13.50;;
50205;SDS011;36098;48.390;10.856;2023-12-20T13:11:15;17.95;;;10.80;;
50205;SDS011;36098;48.390;10.856;2023-12-20T13:13:41;17.15;;;10.38;;
50205;SDS011;36098;48.390;10.856;2023-12-20T13:16:06;17.98;;;9.23;;
50205;SDS011;36098;48.390;10.856;2023-12-20T13:18:33;12.82;;;7.47;;
50205;SDS011;36098;48.390;10.856;2023-12-20T13:20:58;19.45;;;8.13;;
50205;SDS011;36098;48.390;10.856;2023-12-20T13:23:23;14.77;;;8.02;;
50205;SDS011;36098;48.390;10.856;2023-12-20T13:25:48;19.10;;;7.78;;
50205;SDS011;36098;48.390;10.856;2023-12-20T13:28:14;12.10;;;7.30;;
50205;SDS011;36098;48.390;10.856;2023-12-20T13:30:39;15.68;;;7.85;;
50205;SDS011;36098;48.390;10.856;2023-12-20T13:33:05;16.23;;;7.30;;
50205;SDS011;36098;48.390;10.856;2023-12-20T13:35:31;10.65;;;6.93;;
50205;SDS011;36098;48.390;10.856;2023-12-20T13:37:57;14.02;;;7.47;;
50205;SDS011;36098;48.390;10.856;2023-12-20T13:40:23;13.50;;;7.32;;
50205;SDS011;36098;48.390;10.856;2023-12-20T13:42:48;14.35;;;6.28;;
50205;SDS011;36098;48.390;10.856;2023-12-20T13:45:13;11.55;;;6.10;;
50205;SDS011;36098;48.390;10.856;2023-12-20T13:47:39;10.20;;;6.18;;
50205;SDS011;36098;48.390;10.856;2023-12-20T13:50:04;11.05;;;5.95;;
50205;SDS011;36098;48.390;10.856;2023-12-20T13:52:30;11.43;;;5.93;;
50205;SDS011;36098;48.390;10.856;2023-12-20T13:54:55;10.68;;;5.40;;
50205;SDS011;36098;48.390;10.856;2023-12-20T13:57:21;12.13;;;6.03;;
50205;SDS011;36098;48.390;10.856;2023-12-20T13:59:46;11.95;;;5.88;;
50205;SDS011;36098;48.390;10.856;2023-12-20T14:02:11;9.82;;;5.30;;
50205;SDS011;36098;48.390;10.856;2023-12-20T14:04:36;7.13;;;4.65;;
50205;SDS011;36098;48.390;10.856;2023-12-20T14:07:04;8.30;;;5.00;;
50205;SDS011;36098;48.390;10.856;2023-12-20T14:09:29;9.95;;;5.25;;
50205;SDS011;36098;48.390;10.856;2023-12-20T14:11:54;8.23;;;4.65;;
50205;SDS011;36098;48.390;10.856;2023-12-20T14:14:19;9.70;;;4.88;;
50205;SDS011;36098;48.390;10.856;2023-12-20T14:16:45;7.80;;;4.68;;
50205;SDS011;36098;48.390;10.856;2023-12-20T14:19:10;7.57;;;4.53;;
50205;SDS011;36098;48.390;10.856;2023-12-20T14:21:36;9.00;;;5.00;;
50205;SDS011;36098;48.390;10.856;2023-12-20T14:24:01;6.72;;;4.38;;
50205;SDS011;36098;48.390;10.856;2023-12-20T14:26:27;6.18;;;4.18;;
50205;SDS011;36098;48.390;10.856;2023-12-20T14:28:53;6.95;;;3.75;;